createdAt,value
2023-04-20T00:00:09.895Z,0.97
2023-04-20T00:01:09.895Z,0.97
2023-04-20T00:02:09.944Z,0.96
2023-04-20T00:03:10.023Z,0.96
2023-04-20T00:04:09.930Z,0.97
2023-04-20T00:05:09.868Z,0.96
2023-04-20T00:06:08.841Z,0.96
2023-04-20T00:07:09.821Z,0.96
2023-04-20T00:08:08.819Z,0.96
2023-04-20T00:09:08.835Z,0.97
2023-04-20T00:10:09.853Z,0.97
2023-04-20T00:11:08.847Z,0.98
2023-04-20T00:12:08.853Z,0.94
2023-04-20T00:13:09.867Z,0.96
2023-04-20T00:14:09.809Z,0.96
2023-04-20T00:15:09.795Z,0.93
2023-04-20T00:16:09.855Z,0.96
2023-04-20T00:17:09.838Z,0.95
2023-04-20T00:18:09.834Z,0.95
2023-04-20T00:19:10.090Z,0.95
2023-04-20T00:20:09.906Z,0.96
2023-04-20T00:21:08.887Z,0.96
2023-04-20T00:22:09.909Z,0.95
2023-04-20T00:23:09.908Z,0.95
2023-04-20T00:24:09.935Z,0.95
2023-04-20T00:25:09.943Z,0.96
2023-04-20T00:26:09.025Z,0.95
2023-04-20T00:27:09.999Z,0.96
2023-04-20T00:28:10.019Z,0.95
2023-04-20T00:29:09.064Z,0.96
2023-04-20T00:30:10.085Z,0.95
2023-04-20T00:31:10.154Z,0.94
2023-04-20T00:32:09.187Z,0.95
2023-04-20T00:33:09.144Z,0.94
2023-04-20T00:34:10.178Z,0.95
2023-04-20T00:35:10.216Z,0.94
2023-04-20T00:36:09.416Z,0.94
2023-04-20T00:37:10.480Z,0.95
2023-04-20T00:38:10.325Z,0.95
2023-04-20T00:39:10.838Z,0.95
2023-04-20T00:40:10.379Z,0.94
2023-04-20T00:41:10.413Z,0.94
2023-04-20T00:42:09.440Z,0.95
2023-04-20T00:43:09.475Z,0.95
2023-04-20T00:44:10.489Z,0.94
2023-04-20T00:45:10.574Z,0.93
2023-04-20T00:46:10.573Z,0.93
2023-04-20T00:47:10.586Z,0.93
2023-04-20T00:48:10.631Z,0.93
2023-04-20T00:49:09.632Z,0.95
2023-04-20T00:50:09.733Z,0.94
2023-04-20T00:51:10.694Z,0.94
2023-04-20T00:52:10.768Z,0.95
2023-04-20T00:53:10.772Z,0.94
2023-04-20T00:54:10.767Z,0.93
2023-04-20T00:55:10.788Z,0.94
2023-04-20T00:56:09.805Z,0.93
2023-04-20T00:57:09.861Z,0.93
2023-04-20T00:58:09.850Z,0.93
2023-04-20T00:59:10.897Z,0.94
2023-04-20T01:00:10.918Z,0.94
2023-04-20T01:01:11.002Z,0.93
2023-04-20T01:02:10.965Z,0.95
2023-04-20T01:03:11.096Z,0.94
2023-04-20T01:04:11.184Z,0.92
2023-04-20T01:05:11.058Z,0.94
2023-04-20T01:06:10.103Z,0.94
2023-04-20T01:07:11.086Z,0.94
2023-04-20T01:08:10.147Z,0.93
2023-04-20T01:09:11.188Z,0.95
2023-04-20T01:10:11.185Z,0.93
2023-04-20T01:11:10.241Z,0.93
2023-04-20T01:12:13.697Z,0.94
2023-04-20T01:13:10.244Z,0.95
2023-04-20T01:14:10.254Z,0.93
2023-04-20T01:15:11.267Z,0.92
2023-04-20T01:16:10.331Z,0.93
2023-04-20T01:17:11.201Z,0.92
2023-04-20T01:18:10.188Z,0.93
2023-04-20T01:19:11.252Z,0.92
2023-04-20T01:20:10.229Z,0.94
2023-04-20T01:21:10.217Z,0.92
2023-04-20T01:22:11.225Z,0.93
2023-04-20T01:23:11.190Z,0.92
2023-04-20T01:24:10.235Z,0.92
2023-04-20T01:25:11.204Z,0.92
2023-04-20T01:26:11.179Z,0.93
2023-04-20T01:27:11.229Z,0.91
2023-04-20T01:28:11.164Z,0.91
2023-04-20T01:29:11.139Z,0.92
2023-04-20T01:30:11.124Z,0.93
2023-04-20T01:31:10.138Z,0.91
2023-04-20T01:32:10.108Z,0.92
2023-04-20T01:33:10.272Z,0.91
2023-04-20T01:34:11.117Z,0.91
2023-04-20T01:35:11.110Z,0.92
2023-04-20T01:36:11.100Z,0.91
2023-04-20T01:37:10.092Z,0.91
2023-04-20T01:38:10.082Z,0.92
2023-04-20T01:39:10.134Z,0.94
2023-04-20T01:40:10.096Z,0.91
2023-04-20T01:41:10.060Z,0.91
2023-04-20T01:42:10.088Z,0.91
2023-04-20T01:43:10.053Z,0.92
2023-04-20T01:44:10.254Z,0.91
2023-04-20T01:45:10.101Z,0.91
2023-04-20T01:46:10.322Z,0.92
2023-04-20T01:47:11.034Z,0.91
2023-04-20T01:48:10.018Z,0.91
2023-04-20T01:49:11.007Z,0.91
2023-04-20T01:50:10.025Z,0.91
2023-04-20T01:51:11.035Z,0.91
2023-04-20T01:52:11.029Z,0.92
2023-04-20T01:53:10.026Z,0.92
2023-04-20T01:54:10.011Z,0.91
2023-04-20T01:55:10.999Z,0.91
2023-04-20T01:56:11.047Z,0.90
2023-04-20T01:57:11.068Z,0.90
2023-04-20T01:58:11.106Z,0.89
2023-04-20T01:59:11.117Z,0.90
2023-04-20T02:00:10.215Z,0.90
2023-04-20T02:01:11.280Z,0.91
2023-04-20T02:02:11.287Z,0.90
2023-04-20T02:03:11.378Z,0.89
2023-04-20T02:04:11.316Z,0.91
2023-04-20T02:05:11.359Z,0.88
2023-04-20T02:06:10.325Z,0.91
2023-04-20T02:07:11.361Z,0.90
2023-04-20T02:08:10.813Z,0.90
2023-04-20T02:09:11.428Z,0.93
2023-04-20T02:10:10.486Z,0.91
2023-04-20T02:11:10.530Z,0.92
2023-04-20T02:12:10.566Z,0.91
2023-04-20T02:13:10.654Z,0.89
2023-04-20T02:14:10.654Z,0.92
2023-04-20T02:15:11.657Z,0.90
2023-04-20T02:16:11.710Z,0.92
2023-04-20T02:17:11.765Z,0.92
2023-04-20T02:18:11.785Z,0.92
2023-04-20T02:19:10.784Z,0.93
2023-04-20T02:20:11.773Z,0.91
2023-04-20T02:21:11.808Z,0.93
2023-04-20T02:22:10.825Z,0.94
2023-04-20T02:23:11.868Z,0.93
2023-04-20T02:24:11.900Z,0.92
2023-04-20T02:25:10.926Z,0.93
2023-04-20T02:26:10.948Z,0.92
2023-04-20T02:27:10.954Z,0.92
2023-04-20T02:28:10.966Z,0.93
2023-04-20T02:29:12.100Z,0.93
2023-04-20T02:30:12.611Z,0.93
2023-04-20T02:31:12.078Z,0.92
2023-04-20T02:32:11.067Z,0.93
2023-04-20T02:33:11.032Z,0.93
2023-04-20T02:34:12.041Z,0.93
2023-04-20T02:35:12.060Z,0.92
2023-04-20T02:36:12.068Z,0.92
2023-04-20T02:37:12.065Z,0.93
2023-04-20T02:38:12.099Z,0.92
2023-04-20T02:39:11.083Z,0.93
2023-04-20T02:40:12.115Z,0.93
2023-04-20T02:41:11.092Z,0.92
2023-04-20T02:42:12.126Z,0.92
2023-04-20T02:43:11.239Z,0.93
2023-04-20T02:44:12.119Z,0.93
2023-04-20T02:45:11.171Z,0.93
2023-04-20T02:46:12.204Z,0.92
2023-04-20T02:47:12.195Z,0.93
2023-04-20T02:48:11.217Z,0.92
2023-04-20T02:49:12.241Z,0.92
2023-04-20T02:50:11.292Z,0.91
2023-04-20T02:51:12.347Z,0.93
2023-04-20T02:52:12.366Z,0.90
2023-04-20T02:53:12.403Z,0.93
2023-04-20T02:54:12.542Z,0.92
2023-04-20T02:55:11.486Z,0.91
2023-04-20T02:56:11.633Z,0.91
2023-04-20T02:57:12.628Z,0.91
2023-04-20T02:58:11.614Z,0.92
2023-04-20T02:59:11.706Z,0.92
2023-04-20T03:00:12.896Z,0.92
2023-04-20T03:01:12.724Z,0.92
2023-04-20T03:02:12.985Z,0.92
2023-04-20T03:03:11.936Z,0.91
2023-04-20T03:04:11.900Z,0.90
2023-04-20T03:05:12.866Z,0.90
2023-04-20T03:06:12.901Z,0.92
2023-04-20T03:07:13.063Z,0.92
2023-04-20T03:08:12.981Z,0.91
2023-04-20T03:09:12.341Z,0.91
2023-04-20T03:10:13.674Z,0.91
2023-04-20T03:11:13.139Z,0.90
2023-04-20T03:12:12.216Z,0.90
2023-04-20T03:13:12.226Z,0.89
2023-04-20T03:14:13.261Z,0.90
2023-04-20T03:15:13.304Z,0.88
2023-04-20T03:16:13.720Z,0.89
2023-04-20T03:17:13.389Z,0.90
2023-04-20T03:18:13.487Z,0.88
2023-04-20T03:19:12.518Z,0.88
2023-04-20T03:20:13.562Z,0.90
2023-04-20T03:21:13.603Z,0.88
2023-04-20T03:22:12.670Z,0.89
2023-04-20T03:23:13.707Z,0.89
2023-04-20T03:24:13.818Z,0.88
2023-04-20T03:25:12.806Z,0.88
2023-04-20T03:26:12.880Z,0.88
2023-04-20T03:27:13.900Z,0.89
2023-04-20T03:28:13.021Z,0.88
2023-04-20T03:29:14.005Z,0.88
2023-04-20T03:30:13.075Z,0.88
2023-04-20T03:31:13.117Z,0.90
2023-04-20T03:32:13.279Z,0.87
2023-04-20T03:33:14.220Z,0.87
2023-04-20T03:34:13.256Z,0.88
2023-04-20T03:35:14.322Z,0.88
2023-04-20T03:36:13.360Z,0.88
2023-04-20T03:37:13.401Z,0.88
2023-04-20T03:38:13.517Z,0.86
2023-04-20T03:39:14.539Z,0.87
2023-04-20T03:40:15.041Z,0.87
2023-04-20T03:41:13.608Z,0.86
2023-04-20T03:42:13.692Z,0.87
2023-04-20T03:43:14.913Z,0.87
2023-04-20T03:44:13.719Z,0.87
2023-04-20T03:45:13.817Z,0.88
2023-04-20T03:46:14.864Z,0.85
2023-04-20T03:47:13.950Z,0.87
2023-04-20T03:48:14.975Z,0.85
2023-04-20T03:49:15.085Z,0.86
2023-04-20T03:50:15.044Z,0.85
2023-04-20T03:51:15.155Z,0.87
2023-04-20T03:52:14.112Z,0.85
2023-04-20T03:53:14.222Z,0.85
2023-04-20T03:54:15.268Z,0.85
2023-04-20T03:55:15.271Z,0.85
2023-04-20T03:56:15.362Z,0.86
2023-04-20T03:57:15.362Z,0.86
2023-04-20T03:58:14.431Z,0.85
2023-04-20T03:59:15.623Z,0.84
2023-04-20T04:00:15.532Z,0.84
2023-04-20T04:01:15.589Z,0.85
2023-04-20T04:02:15.641Z,0.84
2023-04-20T04:03:14.803Z,0.85
2023-04-20T04:04:15.952Z,0.84
2023-04-20T04:05:15.853Z,0.84
2023-04-20T04:06:15.816Z,0.85
2023-04-20T04:07:15.838Z,0.84
2023-04-20T04:08:15.868Z,0.83
2023-04-20T04:09:16.144Z,0.84
2023-04-20T04:10:14.997Z,0.82
2023-04-20T04:11:15.120Z,0.83
2023-04-20T04:12:16.110Z,0.82
2023-04-20T04:13:15.128Z,0.83
2023-04-20T04:14:16.216Z,0.82
2023-04-20T04:15:16.221Z,0.82
2023-04-20T04:16:16.262Z,0.81
2023-04-20T04:17:16.399Z,0.82
2023-04-20T04:18:16.385Z,0.82
2023-04-20T04:19:16.742Z,0.83
2023-04-20T04:20:15.473Z,0.82
2023-04-20T04:21:15.523Z,0.82
2023-04-20T04:22:16.522Z,0.81
2023-04-20T04:23:15.598Z,0.82
2023-04-20T04:24:16.600Z,0.81
2023-04-20T04:25:16.655Z,0.81
2023-04-20T04:26:15.706Z,0.81
2023-04-20T04:27:16.745Z,0.81
2023-04-20T04:28:15.759Z,0.80
2023-04-20T04:29:17.108Z,0.81
2023-04-20T04:30:16.906Z,0.81
2023-04-20T04:31:15.988Z,0.80
2023-04-20T04:32:15.983Z,0.81
2023-04-20T04:33:17.012Z,0.79
2023-04-20T04:34:16.037Z,0.80
2023-04-20T04:35:17.096Z,0.79
2023-04-20T04:36:17.162Z,0.80
2023-04-20T04:37:17.161Z,0.81
2023-04-20T04:38:17.274Z,0.80
2023-04-20T04:39:16.514Z,0.81
2023-04-20T04:40:16.327Z,0.79
2023-04-20T04:41:16.385Z,0.80
2023-04-20T04:42:17.408Z,0.78
2023-04-20T04:43:16.478Z,0.80
2023-04-20T04:44:16.504Z,0.79
2023-04-20T04:45:17.546Z,0.79
2023-04-20T04:46:16.636Z,0.79
2023-04-20T04:47:17.686Z,0.78
2023-04-20T04:48:17.702Z,0.78
2023-04-20T04:49:18.007Z,0.78
2023-04-20T04:50:16.813Z,0.78
2023-04-20T04:51:16.845Z,0.78
2023-04-20T04:52:16.917Z,0.78
2023-04-20T04:53:17.924Z,0.78
2023-04-20T04:54:17.990Z,0.77
2023-04-20T04:55:17.033Z,0.77
2023-04-20T04:56:18.088Z,0.78
2023-04-20T04:57:17.164Z,0.77
2023-04-20T04:58:17.166Z,0.78
2023-04-20T04:59:18.500Z,0.78
2023-04-20T05:00:17.244Z,0.78
2023-04-20T05:01:17.306Z,0.78
2023-04-20T05:02:18.450Z,0.76
2023-04-20T05:03:17.613Z,0.76
2023-04-20T05:04:18.522Z,0.76
2023-04-20T05:05:18.637Z,0.76
2023-04-20T05:06:27.886Z,0.77
2023-04-20T05:07:17.477Z,0.77
2023-04-20T05:08:17.466Z,0.77
2023-04-20T05:09:17.720Z,0.77
2023-04-20T05:10:17.464Z,0.78
2023-04-20T05:11:18.452Z,0.77
2023-04-20T05:12:18.440Z,0.77
2023-04-20T05:13:18.513Z,0.77
2023-04-20T05:14:18.420Z,0.77
2023-04-20T05:15:18.430Z,0.76
2023-04-20T05:16:17.472Z,0.77
2023-04-20T05:17:18.488Z,0.77
2023-04-20T05:18:17.421Z,0.76
2023-04-20T05:19:18.617Z,0.76
2023-04-20T05:20:17.413Z,0.76
2023-04-20T05:21:17.397Z,0.77
2023-04-20T05:22:18.384Z,0.77
2023-04-20T05:23:17.380Z,0.78
2023-04-20T05:24:17.358Z,0.79
2023-04-20T05:25:18.389Z,0.78
2023-04-20T05:26:18.366Z,0.79
2023-04-20T05:27:18.336Z,0.78
2023-04-20T05:28:17.328Z,0.77
2023-04-20T05:29:17.693Z,0.78
2023-04-20T05:30:21.756Z,0.78
2023-04-20T05:31:17.397Z,0.78
2023-04-20T05:32:18.382Z,0.79
2023-04-20T05:33:18.362Z,0.79
2023-04-20T05:34:18.368Z,0.81
2023-04-20T05:35:18.426Z,0.83
2023-04-20T05:36:17.330Z,0.86
2023-04-20T05:37:18.343Z,0.87
2023-04-20T05:38:18.359Z,0.89
2023-04-20T05:39:18.542Z,0.89
2023-04-20T05:40:17.329Z,0.90
2023-04-20T05:41:17.296Z,0.96
2023-04-20T05:42:18.313Z,0.96
2023-04-20T05:43:18.305Z,1.01
2023-04-20T05:44:17.285Z,0.89
2023-04-20T05:45:18.280Z,0.88
2023-04-20T05:46:17.367Z,0.90
2023-04-20T05:47:18.417Z,0.91
2023-04-20T05:48:17.311Z,0.92
2023-04-20T05:49:18.511Z,0.93
2023-04-20T05:50:18.254Z,0.95
2023-04-20T05:51:17.298Z,0.97
2023-04-20T05:52:18.315Z,0.99
2023-04-20T05:53:17.358Z,1.00
2023-04-20T05:54:17.434Z,1.02
2023-04-20T05:55:20.578Z,1.05
2023-04-20T05:56:17.472Z,1.06
2023-04-20T05:57:17.424Z,1.07
2023-04-20T05:58:18.421Z,1.10
2023-04-20T05:59:17.703Z,1.11
2023-04-20T06:00:17.435Z,1.17
2023-04-20T06:01:17.421Z,1.15
2023-04-20T06:02:17.982Z,1.15
2023-04-20T06:03:17.637Z,1.15
2023-04-20T06:04:18.732Z,1.15
2023-04-20T06:05:18.406Z,1.12
2023-04-20T06:06:17.356Z,1.12
2023-04-20T06:07:18.425Z,1.12
2023-04-20T06:08:17.362Z,1.10
2023-04-20T06:09:17.585Z,1.10
2023-04-20T06:10:18.376Z,1.12
2023-04-20T06:11:17.381Z,1.09
2023-04-20T06:12:17.373Z,1.06
2023-04-20T06:13:18.455Z,1.04
2023-04-20T06:14:18.465Z,1.07
2023-04-20T06:15:17.583Z,1.06
2023-04-20T06:16:18.582Z,1.06
2023-04-20T06:17:17.539Z,1.02
2023-04-20T06:18:18.683Z,1.03
2023-04-20T06:19:19.506Z,1.04
2023-04-20T06:20:18.698Z,1.02
2023-04-20T06:21:18.742Z,1.02
2023-04-20T06:22:18.841Z,1.02
2023-04-20T06:23:18.814Z,1.00
2023-04-20T06:24:17.865Z,1.00
2023-04-20T06:25:18.884Z,0.97
2023-04-20T06:26:18.913Z,1.00
2023-04-20T06:27:18.981Z,0.98
2023-04-20T06:28:17.997Z,0.95
2023-04-20T06:29:19.386Z,0.98
2023-04-20T06:30:19.135Z,0.98
2023-04-20T06:31:18.186Z,0.98
2023-04-20T06:32:19.263Z,0.96
2023-04-20T06:33:19.254Z,0.97
2023-04-20T06:34:18.254Z,0.95
2023-04-20T06:35:19.284Z,0.96
2023-04-20T06:36:19.360Z,0.95
2023-04-20T06:37:19.396Z,0.92
2023-04-20T06:38:19.478Z,0.93
2023-04-20T06:39:20.087Z,0.93
2023-04-20T06:40:18.547Z,0.93
2023-04-20T06:41:18.620Z,0.94
2023-04-20T06:42:18.607Z,0.92
2023-04-20T06:43:19.696Z,0.91
2023-04-20T06:44:19.749Z,0.90
2023-04-20T06:45:19.768Z,0.89
2023-04-20T06:46:18.912Z,0.92
2023-04-20T06:47:19.890Z,0.88
2023-04-20T06:48:31.553Z,0.91
2023-04-20T06:49:20.106Z,0.91
2023-04-20T06:50:19.908Z,0.91
2023-04-20T06:51:18.953Z,0.90
2023-04-20T06:52:18.885Z,0.89
2023-04-20T06:53:19.898Z,0.89
2023-04-20T06:54:19.913Z,0.89
2023-04-20T06:55:19.951Z,0.86
2023-04-20T06:56:19.939Z,0.87
2023-04-20T06:57:18.914Z,0.90
2023-04-20T06:58:18.866Z,0.89
2023-04-20T06:59:19.174Z,0.91
2023-04-20T07:00:19.855Z,0.91
2023-04-20T07:01:18.867Z,0.92
2023-04-20T07:02:18.954Z,0.95
2023-04-20T07:03:20.072Z,0.94
2023-04-20T07:04:19.895Z,0.95
2023-04-20T07:05:19.882Z,0.95
2023-04-20T07:06:18.787Z,0.97
2023-04-20T07:07:19.807Z,0.98
2023-04-20T07:08:19.793Z,0.97
2023-04-20T07:09:18.908Z,1.00
2023-04-20T07:10:19.780Z,1.00
2023-04-20T07:11:19.808Z,0.99
2023-04-20T07:12:18.871Z,1.00
2023-04-20T07:13:19.762Z,1.01
2023-04-20T07:14:19.745Z,1.00
2023-04-20T07:15:19.745Z,0.99
2023-04-20T07:16:19.811Z,0.99
2023-04-20T07:17:19.771Z,0.99
2023-04-20T07:18:19.777Z,0.99
2023-04-20T07:19:19.903Z,0.98
2023-04-20T07:20:19.801Z,1.01
2023-04-20T07:21:19.820Z,1.01
2023-04-20T07:22:18.856Z,0.99
2023-04-20T07:23:18.870Z,1.01
2023-04-20T07:24:19.905Z,1.03
2023-04-20T07:25:18.914Z,1.01
2023-04-20T07:26:18.901Z,1.04
2023-04-20T07:27:18.930Z,1.03
2023-04-20T07:28:19.946Z,1.05
2023-04-20T07:29:20.262Z,1.04
2023-04-20T07:30:19.952Z,1.04
2023-04-20T07:31:20.056Z,1.06
2023-04-20T07:32:20.055Z,1.05
2023-04-20T07:33:19.983Z,1.07
2023-04-20T07:34:19.333Z,1.06
2023-04-20T07:35:19.042Z,1.07
2023-04-20T07:36:20.062Z,1.08
2023-04-20T07:37:20.056Z,1.08
2023-04-20T07:38:20.092Z,1.06
2023-04-20T07:39:19.302Z,1.08
2023-04-20T07:40:19.094Z,1.09
2023-04-20T07:41:20.147Z,1.07
2023-04-20T07:42:19.293Z,1.08
2023-04-20T07:43:20.412Z,1.08
2023-04-20T07:44:20.236Z,1.10
2023-04-20T07:45:20.256Z,1.10
2023-04-20T07:46:20.495Z,1.06
2023-04-20T07:47:20.339Z,1.02
2023-04-20T07:48:20.353Z,1.01
2023-04-20T07:49:19.726Z,1.04
2023-04-20T07:50:20.476Z,1.07
2023-04-20T07:51:20.941Z,1.10
2023-04-20T07:52:19.491Z,1.07
2023-04-20T07:53:19.507Z,1.02
2023-04-20T07:54:20.530Z,0.96
2023-04-20T07:55:20.597Z,0.99
2023-04-20T07:56:20.643Z,0.94
2023-04-20T07:57:20.692Z,0.87
2023-04-20T07:58:20.710Z,0.76
2023-04-20T07:59:20.847Z,0.62
2023-04-20T08:00:19.732Z,0.74
2023-04-20T08:01:20.777Z,0.71
2023-04-20T08:02:20.919Z,0.64
2023-04-20T08:03:20.050Z,0.58
2023-04-20T08:04:21.063Z,0.52
2023-04-20T08:05:20.096Z,0.53
2023-04-20T08:06:20.915Z,0.54
2023-04-20T08:07:20.981Z,0.56
2023-04-20T08:08:21.030Z,0.54
2023-04-20T08:09:21.055Z,0.54
2023-04-20T08:10:21.114Z,0.49
2023-04-20T08:11:20.300Z,0.54
2023-04-20T08:12:20.180Z,0.53
2023-04-20T08:13:21.267Z,0.58
2023-04-20T08:14:21.403Z,0.63
2023-04-20T08:15:21.414Z,0.61
2023-04-20T08:16:20.383Z,0.61
2023-04-20T08:17:21.608Z,0.59
2023-04-20T08:18:21.600Z,0.61
2023-04-20T08:19:20.517Z,0.61
2023-04-20T08:20:21.550Z,0.63
2023-04-20T08:21:22.377Z,0.61
2023-04-20T08:22:21.574Z,0.64
2023-04-20T08:23:20.559Z,0.63
2023-04-20T08:24:21.574Z,0.65
2023-04-20T08:25:20.549Z,0.64
2023-04-20T08:26:20.546Z,0.64
2023-04-20T08:27:21.548Z,0.60
2023-04-20T08:28:32.900Z,0.67
2023-04-20T08:29:21.513Z,0.68
2023-04-20T08:30:20.547Z,0.68
2023-04-20T08:31:21.659Z,0.68
2023-04-20T08:32:21.979Z,0.69
2023-04-20T08:33:21.514Z,0.71
2023-04-20T08:34:21.503Z,0.69
2023-04-20T08:35:20.480Z,0.71
2023-04-20T08:36:21.508Z,0.68
2023-04-20T08:37:21.452Z,0.68
2023-04-20T08:39:32.479Z,0.50
2023-04-20T08:40:33.452Z,0.50
2023-04-20T08:41:33.457Z,0.50
2023-04-20T08:42:32.445Z,0.50
2023-04-20T08:43:33.438Z,0.50
2023-04-20T08:44:33.440Z,0.49
2023-04-20T08:45:32.459Z,0.54
2023-04-20T08:46:33.522Z,0.57
2023-04-20T08:47:33.515Z,0.53
2023-04-20T08:48:33.638Z,0.58
2023-04-20T08:49:33.396Z,0.54
2023-04-20T08:50:33.456Z,0.50
2023-04-20T08:51:33.392Z,0.55
2023-04-20T08:52:32.377Z,0.48
2023-04-20T08:53:33.406Z,0.56
2023-04-20T08:54:32.617Z,0.49
2023-04-20T08:55:33.416Z,0.54
2023-04-20T08:56:33.360Z,0.52
2023-04-20T08:57:33.761Z,0.54
2023-04-20T08:58:33.336Z,0.49
2023-04-20T08:59:33.361Z,0.51
2023-04-20T09:00:32.322Z,0.51
2023-04-20T09:01:35.509Z,0.58
2023-04-20T09:02:33.540Z,0.59
2023-04-20T09:03:33.444Z,0.59
2023-04-20T09:04:32.374Z,0.61
2023-04-20T09:05:33.297Z,0.60
2023-04-20T09:06:33.284Z,0.63
2023-04-20T09:07:33.292Z,0.68
2023-04-20T09:08:33.273Z,0.75
2023-04-20T09:09:33.285Z,0.69
2023-04-20T09:10:32.262Z,0.77
2023-04-20T09:11:32.295Z,0.77
2023-04-20T09:12:33.243Z,0.73
2023-04-20T09:13:32.248Z,0.76
2023-04-20T09:14:33.229Z,0.78
2023-04-20T09:15:32.228Z,0.79
2023-04-20T09:16:33.317Z,0.81
2023-04-20T09:17:33.367Z,0.78
2023-04-20T09:18:33.295Z,0.79
2023-04-20T09:19:33.204Z,0.82
2023-04-20T09:20:33.192Z,0.85
2023-04-20T09:21:32.180Z,0.81
2023-04-20T09:22:33.197Z,0.82
2023-04-20T09:23:33.171Z,0.82
2023-04-20T09:24:32.180Z,0.86
2023-04-20T09:25:32.165Z,0.81
2023-04-20T09:26:32.175Z,0.86
2023-04-20T09:27:33.139Z,0.77
2023-04-20T09:28:33.132Z,0.85
2023-04-20T09:29:33.127Z,0.85
2023-04-20T09:30:33.173Z,0.81
2023-04-20T09:31:33.197Z,0.82
2023-04-20T09:32:33.170Z,0.83
2023-04-20T09:33:33.144Z,0.80
2023-04-20T09:34:33.305Z,0.84
2023-04-20T09:35:32.289Z,0.85
2023-04-20T09:36:33.335Z,0.82
2023-04-20T09:37:32.335Z,0.79
2023-04-20T09:38:33.372Z,0.78
2023-04-20T09:39:32.401Z,0.78
2023-04-20T09:40:32.421Z,0.76
2023-04-20T09:41:33.502Z,0.78
2023-04-20T09:42:33.526Z,0.78
2023-04-20T09:43:33.535Z,0.76
2023-04-20T09:44:33.596Z,0.77
2023-04-20T09:45:33.650Z,0.79
2023-04-20T09:46:33.662Z,0.78
2023-04-20T09:47:32.787Z,0.79
2023-04-20T09:48:32.729Z,0.78
2023-04-20T09:49:32.753Z,0.81
2023-04-20T09:50:45.686Z,0.82
2023-04-20T09:51:34.762Z,0.81
2023-04-20T09:52:34.285Z,0.82
2023-04-20T09:53:33.757Z,0.83
2023-04-20T09:54:33.737Z,0.83
2023-04-20T09:55:33.734Z,0.85
2023-04-20T09:56:33.729Z,0.88
2023-04-20T09:57:33.732Z,0.90
2023-04-20T09:58:32.731Z,0.92
2023-04-20T09:59:33.729Z,0.93
2023-04-20T10:00:33.712Z,0.94
2023-04-20T10:01:33.759Z,0.95
2023-04-20T10:02:33.827Z,0.96
2023-04-20T10:03:33.935Z,0.94
2023-04-20T10:04:33.877Z,0.97
2023-04-20T10:05:32.804Z,0.93
2023-04-20T10:06:32.857Z,0.99
2023-04-20T10:07:33.883Z,1.02
2023-04-20T10:08:32.877Z,0.98
2023-04-20T10:09:33.923Z,0.98
2023-04-20T10:10:33.920Z,0.96
2023-04-20T10:11:44.568Z,0.97
2023-04-20T10:12:33.963Z,0.97
2023-04-20T10:13:32.933Z,0.97
2023-04-20T10:14:33.962Z,0.99
2023-04-20T10:15:33.955Z,0.99
2023-04-20T10:16:33.988Z,0.99
2023-04-20T10:17:34.027Z,1.02
2023-04-20T10:18:33.089Z,1.02
2023-04-20T10:19:33.916Z,1.00
2023-04-20T10:20:32.903Z,0.99
2023-04-20T10:21:33.894Z,1.01
2023-04-20T10:22:34.052Z,1.00
2023-04-20T10:23:32.869Z,0.97
2023-04-20T10:24:33.864Z,1.01
2023-04-20T10:25:32.868Z,1.02
2023-04-20T10:26:33.847Z,1.02
2023-04-20T10:27:33.837Z,1.00
2023-04-20T10:28:32.837Z,1.01
2023-04-20T10:29:34.510Z,1.01
2023-04-20T10:30:33.834Z,1.01
2023-04-20T10:31:33.881Z,1.01
2023-04-20T10:32:32.842Z,1.00
2023-04-20T10:33:33.806Z,0.98
2023-04-20T10:34:33.804Z,1.02
2023-04-20T10:35:33.796Z,1.02
2023-04-20T10:36:32.830Z,1.02
2023-04-20T10:37:33.854Z,1.04
2023-04-20T10:38:33.856Z,1.04
2023-04-20T10:39:33.772Z,1.03
2023-04-20T10:40:32.753Z,1.04
2023-04-20T10:41:32.792Z,1.04
2023-04-20T10:42:33.808Z,1.09
2023-04-20T10:43:33.736Z,0.94
2023-04-20T10:44:33.733Z,0.97
2023-04-20T10:45:33.731Z,1.02
2023-04-20T10:46:33.893Z,0.97
2023-04-20T10:47:33.873Z,0.85
2023-04-20T10:48:33.699Z,0.82
2023-04-20T10:49:33.690Z,0.80
2023-04-20T10:50:33.732Z,0.79
2023-04-20T10:51:33.700Z,0.81
2023-04-20T10:52:33.703Z,0.80
2023-04-20T10:53:33.680Z,0.76
2023-04-20T10:54:32.826Z,0.81
2023-04-20T10:55:33.681Z,0.79
2023-04-20T10:56:33.689Z,0.78
2023-04-20T10:57:32.655Z,0.76
2023-04-20T10:58:33.709Z,0.77
2023-04-20T10:59:33.692Z,0.72
2023-04-20T11:00:33.652Z,0.76
2023-04-20T11:01:33.680Z,0.75
2023-04-20T11:02:33.830Z,0.70
2023-04-20T11:03:33.720Z,0.70
2023-04-20T11:04:33.701Z,0.70
2023-04-20T11:05:33.597Z,0.70
2023-04-20T11:06:33.596Z,0.73
2023-04-20T11:07:32.582Z,0.68
2023-04-20T11:08:33.572Z,0.69
2023-04-20T11:09:33.593Z,0.66
2023-04-20T11:10:33.606Z,0.68
2023-04-20T11:11:33.563Z,0.66
2023-04-20T11:12:32.577Z,0.66
2023-04-20T11:13:33.606Z,0.68
2023-04-20T11:14:33.645Z,0.69
2023-04-20T11:15:33.689Z,0.70
2023-04-20T11:16:46.893Z,0.75
2023-04-20T11:17:33.790Z,0.70
2023-04-20T11:18:33.728Z,0.70
2023-04-20T11:19:32.718Z,0.73
2023-04-20T11:20:33.728Z,0.68
2023-04-20T11:21:33.705Z,0.72
2023-04-20T11:22:32.687Z,0.69
2023-04-20T11:23:32.668Z,0.68
2023-04-20T11:24:32.661Z,0.72
2023-04-20T11:25:32.692Z,0.68
2023-04-20T11:26:33.679Z,0.68
2023-04-20T11:27:33.658Z,0.66
2023-04-20T11:28:33.642Z,0.68
2023-04-20T11:29:32.653Z,0.69
2023-04-20T11:30:32.659Z,0.61
2023-04-20T11:31:33.752Z,0.65
2023-04-20T11:32:33.911Z,0.64
2023-04-20T11:33:33.670Z,0.68
2023-04-20T11:34:33.605Z,0.68
2023-04-20T11:35:32.602Z,0.63
2023-04-20T11:36:34.028Z,0.62
2023-04-20T11:37:33.832Z,0.66
2023-04-20T11:38:33.592Z,0.63
2023-04-20T11:39:32.577Z,0.59
2023-04-20T11:40:33.571Z,0.63
2023-04-20T11:41:33.568Z,0.59
2023-04-20T11:42:32.678Z,0.62
2023-04-20T11:43:33.844Z,0.62
2023-04-20T11:44:32.727Z,0.63
2023-04-20T11:45:35.743Z,0.60
2023-04-20T11:46:33.775Z,0.57
2023-04-20T11:47:33.792Z,0.56
2023-04-20T11:48:33.727Z,0.58
2023-04-20T11:49:32.701Z,0.54
2023-04-20T11:50:32.683Z,0.56
2023-04-20T11:51:32.665Z,0.56
2023-04-20T11:52:33.668Z,0.56
2023-04-20T11:53:33.676Z,0.55
2023-04-20T11:54:33.668Z,0.56
2023-04-20T11:55:32.656Z,0.56
2023-04-20T11:56:32.650Z,0.55
2023-04-20T11:57:33.634Z,0.54
2023-04-20T11:58:33.658Z,0.56
2023-04-20T11:59:32.620Z,0.57
2023-04-20T12:00:33.629Z,0.54
2023-04-20T12:01:32.608Z,0.54
2023-04-20T12:02:32.799Z,0.56
2023-04-20T12:03:33.887Z,0.56
2023-04-20T12:04:33.792Z,0.56
2023-04-20T12:05:33.590Z,0.56
2023-04-20T12:06:33.581Z,0.56
2023-04-20T12:07:33.587Z,0.51
2023-04-20T12:08:32.596Z,0.52
2023-04-20T12:09:33.635Z,0.53
2023-04-20T12:10:33.577Z,0.53
2023-04-20T12:11:33.576Z,0.52
2023-04-20T12:12:33.617Z,0.54
2023-04-20T12:13:33.689Z,0.52
2023-04-20T12:14:33.859Z,0.52
2023-04-20T12:15:33.785Z,0.50
2023-04-20T12:16:33.847Z,0.54
2023-04-20T12:17:32.885Z,0.57
2023-04-20T12:18:32.925Z,0.51
2023-04-20T12:19:32.947Z,0.56
2023-04-20T12:20:33.998Z,0.55
2023-04-20T12:21:34.037Z,0.54
2023-04-20T12:22:34.075Z,0.55
2023-04-20T12:23:33.164Z,0.50
2023-04-20T12:24:33.173Z,0.48
2023-04-20T12:25:34.204Z,0.55
2023-04-20T12:26:40.885Z,0.51
2023-04-20T12:27:34.250Z,0.51
2023-04-20T12:28:34.232Z,0.52
2023-04-20T12:29:34.218Z,0.52
2023-04-20T12:30:34.431Z,0.52
2023-04-20T12:31:34.261Z,0.40
2023-04-20T12:32:33.216Z,0.52
2023-04-20T12:33:34.199Z,0.55
2023-04-20T12:34:33.181Z,0.57
2023-04-20T12:35:34.186Z,0.55
2023-04-20T12:36:33.186Z,0.69
2023-04-20T12:37:34.166Z,0.68
2023-04-20T12:38:33.172Z,0.70
2023-04-20T12:39:34.240Z,0.80
2023-04-20T12:40:33.253Z,0.90
2023-04-20T12:41:33.394Z,0.94
2023-04-20T12:42:33.321Z,0.93
2023-04-20T12:43:34.367Z,1.03
2023-04-20T12:44:33.433Z,1.01
2023-04-20T12:45:34.455Z,1.12
2023-04-20T12:46:34.604Z,1.15
2023-04-20T12:47:33.608Z,1.20
2023-04-20T12:48:34.557Z,1.24
2023-04-20T12:49:33.903Z,1.24
2023-04-20T12:50:33.646Z,1.28
2023-04-20T12:51:34.673Z,1.30
2023-04-20T12:52:33.714Z,1.31
2023-04-20T12:53:33.771Z,1.35
2023-04-20T12:54:33.812Z,1.33
2023-04-20T12:55:33.863Z,1.35
2023-04-20T12:56:34.900Z,1.36
2023-04-20T12:57:33.946Z,1.36
2023-04-20T12:58:34.983Z,1.38
2023-04-20T12:59:34.015Z,1.42
2023-04-20T13:00:35.104Z,1.39
2023-04-20T13:01:35.113Z,1.42
2023-04-20T13:02:34.449Z,1.40
2023-04-20T13:03:35.339Z,1.39
2023-04-20T13:04:35.337Z,1.44
2023-04-20T13:05:34.293Z,1.41
2023-04-20T13:06:34.297Z,1.43
2023-04-20T13:07:34.326Z,1.43
2023-04-20T13:08:35.356Z,1.44
2023-04-20T13:09:34.382Z,1.43
2023-04-20T13:10:34.544Z,1.42
2023-04-20T13:11:35.486Z,1.41
2023-04-20T13:12:35.530Z,1.39
2023-04-20T13:13:35.576Z,1.37
2023-04-20T13:14:34.604Z,1.40
2023-04-20T13:15:39.038Z,1.41
2023-04-20T13:16:35.698Z,1.42
2023-04-20T13:17:34.666Z,1.40
2023-04-20T13:18:35.694Z,1.42
2023-04-20T13:19:35.621Z,1.39